Hawaii Volcanoes National Park, Hawaii
Current Conditions -  °F | °C
As of 11:53 AM on Saturday 25 Oct 2014 (Local Time) from PHTO Reporting Station
Scattered Clouds Scattered Clouds  
Wind Chill: 82°   Ceiling: Unl
Heat Index: 86°   Visibility: 10mi
Dew Point: 70°   Wind: 3mph
Humidity: 67%   Direction: NA
Pressure: 30.03"   Gusts: NA
Location:  19.34°N, 155.3°W
Report Text: PHTO 252153Z VRB03KT 10SM SCT027 SCT050 28/21 A3003 RMK AO2 SLP166 T02780211
Loading
Personal Weather Stations






























Interactive Weather Map
Tropical Storm Tracking
New forecast layout! Learn more

10-Day Weather Forecast

Advertisements
Track Severe Weather on mobile